createdAt,value
2018-02-17T00:00:26.425Z,19.00
2018-02-17T00:02:53.950Z,18.60
2018-02-17T00:05:21.500Z,18.67
2018-02-17T00:07:49.037Z,17.20
2018-02-17T00:10:18.232Z,18.55
2018-02-17T00:12:45.785Z,17.80
2018-02-17T00:15:13.333Z,19.07
2018-02-17T00:17:40.890Z,18.70
2018-02-17T00:20:08.434Z,19.47
2018-02-17T00:22:35.987Z,19.00
2018-02-17T00:25:03.524Z,19.07
2018-02-17T00:27:31.086Z,17.17
2018-02-17T00:29:58.613Z,18.87
2018-02-17T00:32:26.159Z,18.10
2018-02-17T00:34:53.710Z,19.70
2018-02-17T00:37:21.273Z,18.27
2018-02-17T00:39:48.800Z,18.57
2018-02-17T00:42:16.432Z,16.30
2018-02-17T00:44:44.098Z,19.17
2018-02-17T00:47:11.638Z,18.03
2018-02-17T00:49:39.177Z,17.25
2018-02-17T00:52:06.706Z,18.70
2018-02-17T00:54:34.259Z,18.55
2018-02-17T00:57:01.791Z,18.97
2018-02-17T00:59:29.369Z,18.15
2018-02-17T01:01:56.902Z,17.30
2018-02-17T01:04:24.549Z,19.45
2018-02-17T01:06:52.146Z,17.43
2018-02-17T01:09:20.457Z,16.30
2018-02-17T01:11:48.292Z,18.03
2018-02-17T01:14:15.858Z,17.20
2018-02-17T01:16:43.407Z,19.77
2018-02-17T01:19:11.191Z,17.73
2018-02-17T01:21:38.733Z,18.00
2018-02-17T01:24:06.352Z,17.37
2018-02-17T01:26:33.925Z,16.97
2018-02-17T01:29:01.454Z,18.67
2018-02-17T01:31:29.006Z,18.60
2018-02-17T01:33:56.533Z,17.97
2018-02-17T01:36:24.076Z,19.13
2018-02-17T01:38:51.606Z,19.07
2018-02-17T01:41:19.161Z,18.23
2018-02-17T01:43:46.707Z,18.87
2018-02-17T01:46:14.363Z,18.00
2018-02-17T01:48:41.902Z,19.10
2018-02-17T01:51:09.445Z,20.33
2018-02-17T01:53:37.006Z,18.60
2018-02-17T01:56:04.530Z,18.60
2018-02-17T01:58:32.182Z,19.07
2018-02-17T02:00:59.712Z,18.57
2018-02-17T02:03:27.272Z,20.98
2018-02-17T02:05:54.801Z,19.77
2018-02-17T02:08:22.370Z,19.50
2018-02-17T02:10:49.905Z,21.33
2018-02-17T02:13:17.494Z,20.53
2018-02-17T02:15:45.802Z,20.17
2018-02-17T02:18:13.326Z,20.23
2018-02-17T02:20:40.861Z,19.10
2018-02-17T02:23:08.388Z,20.00
2018-02-17T02:25:35.925Z,19.87
2018-02-17T02:28:04.227Z,19.67
2018-02-17T02:30:31.772Z,19.60
2018-02-17T02:32:59.307Z,20.00
2018-02-17T02:35:26.866Z,20.03
2018-02-17T02:37:54.408Z,18.87
2018-02-17T02:40:22.717Z,22.20
2018-02-17T02:42:50.251Z,20.88
2018-02-17T02:45:17.894Z,21.60
2018-02-17T02:47:45.421Z,21.00
2018-02-17T02:50:13.384Z,20.93
2018-02-17T02:52:40.905Z,22.87
2018-02-17T02:55:08.445Z,19.20
2018-02-17T02:57:35.965Z,18.33
2018-02-17T03:00:04.322Z,19.83
2018-02-17T03:02:32.614Z,19.42
2018-02-17T03:05:00.140Z,22.20
2018-02-17T03:07:28.965Z,21.50
2018-02-17T03:09:56.493Z,19.30
2018-02-17T03:12:24.047Z,19.90
2018-02-17T03:14:51.573Z,18.03
2018-02-17T03:17:19.172Z,18.13
2018-02-17T03:19:46.702Z,18.00
2018-02-17T03:22:15.058Z,18.50
2018-02-17T03:24:42.585Z,19.70
2018-02-17T03:27:10.127Z,20.20
2018-02-17T03:29:37.656Z,19.10
2018-02-17T03:32:05.193Z,19.33
2018-02-17T03:34:32.725Z,18.12
2018-02-17T03:37:01.034Z,19.20
2018-02-17T03:39:28.553Z,20.60
2018-02-17T03:41:56.100Z,20.50
2018-02-17T03:44:23.620Z,18.60
2018-02-17T03:46:51.920Z,19.07
2018-02-17T03:49:19.600Z,18.93
2018-02-17T03:51:47.129Z,18.85
2018-02-17T03:54:14.676Z,19.60
2018-02-17T03:56:42.198Z,18.80
2018-02-17T03:59:09.733Z,18.27
2018-02-17T04:01:37.249Z,18.62
2018-02-17T04:04:04.789Z,18.63
2018-02-17T04:06:32.332Z,20.60
2018-02-17T04:09:00.637Z,18.97
2018-02-17T04:11:28.237Z,18.13
2018-02-17T04:13:56.545Z,18.40
2018-02-17T04:16:24.100Z,19.90
2018-02-17T04:18:51.674Z,19.05
2018-02-17T04:21:19.977Z,17.90
2018-02-17T04:23:47.510Z,18.40
2018-02-17T04:26:15.058Z,18.80
2018-02-17T04:28:43.497Z,17.80
2018-02-17T04:31:11.806Z,18.83
2018-02-17T04:33:39.351Z,18.67
2018-02-17T04:36:06.907Z,19.47
2018-02-17T04:38:34.442Z,18.10
2018-02-17T04:41:03.945Z,18.15
2018-02-17T04:43:31.474Z,19.10
2018-02-17T04:49:09.865Z,18.17
2018-02-17T04:51:41.250Z,19.30
2018-02-17T04:54:10.474Z,18.43
2018-02-17T04:56:40.608Z,18.67
2018-02-17T04:59:13.721Z,18.70
2018-02-17T05:01:57.894Z,18.50
2018-02-17T05:04:25.840Z,18.27
2018-02-17T05:10:06.492Z,19.08
2018-02-17T05:12:34.033Z,18.03
2018-02-17T05:18:04.290Z,18.60
2018-02-17T05:20:36.442Z,18.07
2018-02-17T05:23:09.433Z,19.17
2018-02-17T05:25:41.396Z,19.77
2018-02-17T05:28:09.830Z,17.90
2018-02-17T05:33:50.507Z,18.67
2018-02-17T05:36:18.962Z,18.30
2018-02-17T05:39:04.988Z,19.50
2018-02-17T05:41:39.063Z,19.00
2018-02-17T05:44:06.606Z,19.17
2018-02-17T05:46:36.025Z,19.03
2018-02-17T05:49:03.570Z,17.90
2018-02-17T05:51:31.115Z,18.30
2018-02-17T05:53:58.653Z,20.00
2018-02-17T05:56:26.196Z,17.20
2018-02-17T05:58:53.765Z,20.30
2018-02-17T06:01:21.297Z,19.53
2018-02-17T06:03:49.631Z,20.27
2018-02-17T06:06:17.161Z,19.17
2018-02-17T06:08:44.735Z,19.83
2018-02-17T06:11:12.302Z,18.67
2018-02-17T06:13:39.841Z,19.10
2018-02-17T06:16:07.377Z,20.07
2018-02-17T06:18:34.899Z,18.23
2018-02-17T06:21:02.436Z,18.17
2018-02-17T06:23:29.961Z,18.60
2018-02-17T06:25:57.505Z,18.67
2018-02-17T06:28:25.201Z,18.70
2018-02-17T06:30:52.745Z,21.47
2018-02-17T06:33:20.285Z,18.60
2018-02-17T06:35:48.186Z,19.43
2018-02-17T06:38:15.745Z,17.73
2018-02-17T06:40:43.280Z,19.77
2018-02-17T06:43:10.850Z,17.97
2018-02-17T06:45:38.377Z,19.60
2018-02-17T06:48:05.927Z,17.70
2018-02-17T06:50:33.461Z,18.55
2018-02-17T06:53:01.012Z,17.57
2018-02-17T06:55:28.533Z,18.90
2018-02-17T06:57:56.842Z,17.63
2018-02-17T07:00:24.357Z,18.03
2018-02-17T07:02:51.900Z,18.07
2018-02-17T07:05:19.439Z,19.00
2018-02-17T07:07:46.999Z,17.53
2018-02-17T07:10:14.516Z,19.60
2018-02-17T07:12:42.844Z,20.03
2018-02-17T07:15:10.376Z,18.37
2018-02-17T07:17:37.907Z,17.80
2018-02-17T07:20:05.443Z,19.60
2018-02-17T07:22:32.964Z,18.83
2018-02-17T07:25:00.510Z,19.07
2018-02-17T07:27:28.064Z,17.90
2018-02-17T07:29:55.599Z,18.87
2018-02-17T07:32:23.130Z,18.90
2018-02-17T07:34:50.690Z,18.23
2018-02-17T07:37:18.532Z,18.25
2018-02-17T07:39:46.068Z,17.90
2018-02-17T07:42:14.357Z,20.43
2018-02-17T07:44:41.893Z,18.93
2018-02-17T07:47:09.444Z,17.57
2018-02-17T07:49:37.009Z,17.90
2018-02-17T07:52:04.528Z,18.43
2018-02-17T07:54:32.061Z,19.00
2018-02-17T07:56:59.593Z,21.30
2018-02-17T07:59:27.884Z,19.17
2018-02-17T08:01:55.424Z,18.60
2018-02-17T08:04:22.945Z,20.47
2018-02-17T08:06:51.252Z,20.20
2018-02-17T08:09:18.806Z,19.70
2018-02-17T08:11:46.353Z,18.17
2018-02-17T08:14:14.660Z,19.10
2018-02-17T08:16:42.969Z,19.00
2018-02-17T08:19:10.577Z,18.77
2018-02-17T08:21:38.138Z,18.87
2018-02-17T08:24:05.657Z,19.13
2018-02-17T08:26:33.185Z,18.70
2018-02-17T08:29:01.493Z,20.30
2018-02-17T08:31:29.021Z,18.33
2018-02-17T08:33:56.562Z,19.87
2018-02-17T08:36:24.121Z,22.00
2018-02-17T08:38:51.681Z,23.70
2018-02-17T08:41:19.213Z,26.23
2018-02-17T08:43:46.852Z,25.47
2018-02-17T08:46:14.378Z,25.10
2018-02-17T08:48:41.948Z,21.10
2018-02-17T08:51:09.503Z,22.07
2018-02-17T08:53:37.114Z,21.10
2018-02-17T08:56:04.660Z,21.30
2018-02-17T08:58:32.185Z,20.40
2018-02-17T09:01:00.494Z,22.90
2018-02-17T09:03:29.354Z,19.65
2018-02-17T09:05:56.920Z,19.57
2018-02-17T09:08:24.452Z,19.27
2018-02-17T09:10:52.110Z,20.70
2018-02-17T09:13:19.644Z,21.83
2018-02-17T09:15:47.204Z,24.27
2018-02-17T09:18:14.743Z,23.40
2018-02-17T09:20:42.284Z,21.47
2018-02-17T09:23:09.813Z,24.40
2018-02-17T09:25:37.337Z,24.57
2018-02-17T09:28:05.644Z,24.60
2018-02-17T09:30:33.174Z,23.90
2018-02-17T09:33:00.717Z,25.47
2018-02-17T09:35:29.165Z,24.73
2018-02-17T09:37:56.710Z,25.07
2018-02-17T09:40:24.245Z,25.12
2018-02-17T09:42:51.913Z,27.20
2018-02-17T09:45:19.449Z,26.30
2018-02-17T09:47:46.997Z,25.63
2018-02-17T09:50:14.522Z,23.10
2018-02-17T09:52:42.845Z,19.83
2018-02-17T09:55:10.473Z,20.67
2018-02-17T09:57:38.029Z,20.37
2018-02-17T10:00:05.549Z,19.17
2018-02-17T10:02:33.115Z,19.13
2018-02-17T10:05:00.649Z,19.65
2018-02-17T10:07:28.169Z,19.90
2018-02-17T10:09:55.734Z,20.40
2018-02-17T10:12:23.266Z,17.70
2018-02-17T10:14:50.810Z,19.53
2018-02-17T10:17:18.364Z,18.03
2018-02-17T10:19:46.021Z,18.67
2018-02-17T10:22:13.541Z,18.13
2018-02-17T10:24:41.099Z,20.53
2018-02-17T10:27:08.659Z,19.80
2018-02-17T10:29:36.196Z,18.00
2018-02-17T10:32:03.721Z,18.10
2018-02-17T10:34:31.308Z,17.93
2018-02-17T10:36:58.825Z,17.20
2018-02-17T10:39:26.372Z,17.10
2018-02-17T10:41:53.918Z,15.95
2018-02-17T10:44:21.475Z,17.20
2018-02-17T10:46:49.113Z,16.70
2018-02-17T10:49:16.657Z,15.90
2018-02-17T10:51:44.207Z,17.17
2018-02-17T10:54:11.737Z,16.47
2018-02-17T10:56:39.298Z,16.60
2018-02-17T10:59:06.929Z,18.57
2018-02-17T11:01:34.488Z,16.62
2018-02-17T11:04:02.037Z,16.37
2018-02-17T11:06:29.585Z,17.60
2018-02-17T11:08:57.208Z,18.80
2018-02-17T11:11:24.757Z,22.83
2018-02-17T11:13:52.281Z,18.20
2018-02-17T11:16:19.884Z,16.73
2018-02-17T11:18:47.408Z,17.07
2018-02-17T11:21:14.969Z,13.32
2018-02-17T11:23:44.019Z,13.20
2018-02-17T11:26:11.598Z,14.63
2018-02-17T11:28:39.901Z,13.90
2018-02-17T11:31:07.490Z,14.77
2018-02-17T11:33:35.813Z,14.37
2018-02-17T11:36:03.365Z,15.88
2018-02-17T11:38:30.910Z,14.63
2018-02-17T11:40:58.453Z,14.48
2018-02-17T11:43:25.991Z,14.60
2018-02-17T11:45:53.521Z,14.70
2018-02-17T11:48:21.063Z,15.83
2018-02-17T11:50:48.707Z,14.63
2018-02-17T11:53:16.267Z,14.77
2018-02-17T11:55:43.821Z,16.57
2018-02-17T11:58:11.387Z,16.50
2018-02-17T12:00:39.040Z,17.55
2018-02-17T12:03:06.586Z,17.50
2018-02-17T12:05:34.106Z,16.63
2018-02-17T12:08:01.755Z,15.17
2018-02-17T12:10:29.318Z,14.87
2018-02-17T12:12:56.915Z,10.20
2018-02-17T12:15:24.448Z,4.00
2018-02-17T12:17:52.068Z,4.80
2018-02-17T12:20:19.633Z,5.40
2018-02-17T12:22:47.968Z,5.17
2018-02-17T12:25:17.032Z,7.53
2018-02-17T12:27:44.567Z,8.53
2018-02-17T12:30:12.161Z,9.07
2018-02-17T12:32:40.490Z,10.30
2018-02-17T12:35:08.040Z,9.73
2018-02-17T12:37:35.666Z,10.60
2018-02-17T12:40:03.212Z,9.03
2018-02-17T12:42:30.733Z,8.87
2018-02-17T12:44:58.296Z,13.47
2018-02-17T12:47:26.222Z,8.63
2018-02-17T12:49:53.903Z,9.90
2018-02-17T12:52:21.446Z,8.70
2018-02-17T12:54:48.986Z,7.62
2018-02-17T12:57:16.559Z,7.10
2018-02-17T12:59:44.124Z,7.10
2018-02-17T13:02:12.462Z,8.10
2018-02-17T13:04:40.758Z,6.43
2018-02-17T13:07:09.069Z,7.30
2018-02-17T13:09:36.785Z,7.47
2018-02-17T13:12:04.373Z,7.83
2018-02-17T13:14:31.920Z,9.23
2018-02-17T13:17:00.270Z,8.20
2018-02-17T13:19:27.788Z,8.63
2018-02-17T13:21:55.327Z,9.30
2018-02-17T13:24:22.874Z,7.80
2018-02-17T13:26:50.425Z,9.00
2018-02-17T13:29:18.782Z,9.80
2018-02-17T13:31:46.319Z,9.10
2018-02-17T13:34:13.837Z,10.70
2018-02-17T13:36:41.382Z,10.87
2018-02-17T13:39:09.668Z,11.80
2018-02-17T13:41:37.987Z,10.70
2018-02-17T13:44:06.285Z,10.37
2018-02-17T13:46:33.822Z,10.88
2018-02-17T13:49:02.120Z,11.13
2018-02-17T13:51:29.699Z,10.63
2018-02-17T13:53:58.100Z,10.63
2018-02-17T13:56:26.580Z,11.87
2018-02-17T13:58:54.133Z,10.40
2018-02-17T14:01:21.677Z,15.00
2018-02-17T14:03:49.260Z,11.50
2018-02-17T14:06:16.793Z,10.20
2018-02-17T14:08:44.349Z,10.45
2018-02-17T14:11:11.870Z,9.80
2018-02-17T14:13:39.525Z,10.90
2018-02-17T14:16:07.064Z,9.90
2018-02-17T14:18:34.630Z,10.00
2018-02-17T14:21:02.203Z,11.07
2018-02-17T14:23:29.758Z,10.10
2018-02-17T14:25:57.299Z,11.90
2018-02-17T14:28:25.588Z,11.60
2018-02-17T14:30:53.236Z,10.13
2018-02-17T14:33:20.795Z,8.33
2018-02-17T14:35:48.440Z,8.80
2018-02-17T14:38:15.989Z,7.00
2018-02-17T14:40:43.557Z,7.03
2018-02-17T14:43:11.098Z,7.43
2018-02-17T14:45:38.656Z,6.90
2018-02-17T14:48:07.255Z,6.50
2018-02-17T14:50:35.060Z,6.00
2018-02-17T14:53:02.597Z,6.80
2018-02-17T14:55:30.226Z,5.60
2018-02-17T14:57:57.789Z,5.93
2018-02-17T15:00:25.338Z,5.60
2018-02-17T15:02:52.964Z,6.10
2018-02-17T15:05:20.530Z,6.60
2018-02-17T15:07:48.231Z,28.37
2018-02-17T15:10:15.766Z,7.70
2018-02-17T15:12:43.308Z,7.10
2018-02-17T15:15:10.899Z,8.07
2018-02-17T15:17:38.468Z,7.23
2018-02-17T15:20:06.763Z,10.20
2018-02-17T15:22:34.349Z,7.23
2018-02-17T15:25:01.868Z,8.20
2018-02-17T15:27:29.406Z,6.33
2018-02-17T15:29:56.942Z,6.53
2018-02-17T15:32:24.484Z,7.40
2018-02-17T15:34:52.012Z,8.00
2018-02-17T15:37:20.317Z,7.57
2018-02-17T15:39:47.848Z,5.80
2018-02-17T15:42:15.405Z,6.93
2018-02-17T15:44:42.964Z,8.07
2018-02-17T15:47:10.579Z,6.80
2018-02-17T15:49:38.114Z,6.93
2018-02-17T15:52:05.699Z,8.00
2018-02-17T15:54:33.305Z,7.80
2018-02-17T15:57:01.602Z,7.82
2018-02-17T15:59:29.137Z,7.40
2018-02-17T16:01:57.470Z,7.00
2018-02-17T16:04:25.050Z,8.30
2018-02-17T16:06:52.590Z,14.20
2018-02-17T16:09:21.060Z,17.00
2018-02-17T16:11:48.932Z,15.70
2018-02-17T16:14:16.507Z,13.77
2018-02-17T16:16:44.045Z,12.23
2018-02-17T16:19:11.597Z,15.30
2018-02-17T16:21:39.132Z,9.40
2018-02-17T16:24:06.697Z,9.03
2018-02-17T16:26:34.270Z,10.37
2018-02-17T16:29:02.577Z,14.57
2018-02-17T16:31:30.093Z,9.93
2018-02-17T16:33:57.677Z,8.40
2018-02-17T16:36:25.197Z,8.10
2018-02-17T16:38:52.795Z,9.60
2018-02-17T16:41:21.125Z,12.13
2018-02-17T16:43:48.702Z,11.60
2018-02-17T16:46:17.021Z,10.50
2018-02-17T16:48:44.559Z,11.50
2018-02-17T16:51:12.097Z,12.53
2018-02-17T16:53:39.616Z,11.00
2018-02-17T16:56:07.927Z,14.67
2018-02-17T16:58:35.460Z,12.20
2018-02-17T17:01:02.996Z,10.33
2018-02-17T17:03:30.567Z,12.03
2018-02-17T17:05:58.136Z,11.57
2018-02-17T17:08:25.660Z,11.10
2018-02-17T17:10:59.212Z,12.30
2018-02-17T17:13:26.755Z,11.13
2018-02-17T17:15:54.459Z,16.47
2018-02-17T17:18:22.028Z,20.30
2018-02-17T17:20:49.613Z,14.90
2018-02-17T17:23:17.170Z,14.20
2018-02-17T17:25:44.713Z,14.17
2018-02-17T17:28:12.358Z,13.40
2018-02-17T17:30:39.872Z,12.53
2018-02-17T17:33:07.413Z,9.30
2018-02-17T17:35:35.013Z,10.25
2018-02-17T17:38:02.937Z,9.80
2018-02-17T17:40:31.712Z,12.30
2018-02-17T17:42:59.560Z,10.50
2018-02-17T17:45:27.968Z,13.05
2018-02-17T17:47:56.295Z,10.30
2018-02-17T17:50:24.112Z,13.40
2018-02-17T17:52:51.684Z,13.20
2018-02-17T17:55:19.355Z,10.10
2018-02-17T17:57:46.921Z,14.47
2018-02-17T18:00:15.445Z,12.45
2018-02-17T18:02:42.989Z,10.73
2018-02-17T18:05:10.514Z,11.37
2018-02-17T18:07:40.732Z,10.23
2018-02-17T18:10:09.039Z,11.10
2018-02-17T18:12:36.569Z,13.52
2018-02-17T18:15:04.112Z,12.30
2018-02-17T18:17:31.665Z,11.45
2018-02-17T18:19:59.245Z,14.03
2018-02-17T18:22:26.776Z,11.80
2018-02-17T18:24:55.193Z,14.20
2018-02-17T18:27:22.717Z,12.03
2018-02-17T18:29:50.257Z,9.30
2018-02-17T18:32:17.845Z,9.30
2018-02-17T18:34:45.404Z,10.80
2018-02-17T18:37:12.941Z,10.67
2018-02-17T18:39:40.505Z,17.40
2018-02-17T18:42:08.828Z,10.90
2018-02-17T18:44:36.378Z,10.37
2018-02-17T18:47:03.904Z,11.02
2018-02-17T18:49:31.465Z,12.27
2018-02-17T18:51:59.097Z,10.67
2018-02-17T18:54:26.637Z,10.50
2018-02-17T18:56:54.198Z,13.73
2018-02-17T18:59:21.732Z,12.47
2018-02-17T19:01:49.520Z,20.93
2018-02-17T19:04:18.127Z,13.48
2018-02-17T19:06:45.703Z,28.40
2018-02-17T19:09:13.339Z,15.20
2018-02-17T19:11:40.901Z,14.40
2018-02-17T19:14:08.426Z,17.47
2018-02-17T19:16:35.971Z,17.07
2018-02-17T19:19:03.493Z,15.53
2018-02-17T19:21:31.054Z,18.97
2018-02-17T19:23:58.677Z,14.60
2018-02-17T19:26:26.224Z,12.93
2018-02-17T19:28:53.834Z,13.50
2018-02-17T19:31:22.142Z,12.40
2018-02-17T19:33:49.695Z,14.73
2018-02-17T19:36:17.886Z,19.07
2018-02-17T19:38:45.453Z,14.07
2018-02-17T19:41:13.766Z,13.97
2018-02-17T19:43:41.322Z,12.43
2018-02-17T19:46:08.866Z,13.00
2018-02-17T19:48:36.484Z,17.48
2018-02-17T19:51:04.001Z,13.37
2018-02-17T19:53:32.329Z,12.32
2018-02-17T19:55:59.852Z,12.90
2018-02-17T19:58:27.435Z,14.50
2018-02-17T20:00:54.939Z,12.83
2018-02-17T20:03:22.524Z,12.95
2018-02-17T20:05:50.069Z,12.17
2018-02-17T20:08:17.968Z,13.03
2018-02-17T20:10:45.537Z,12.27
2018-02-17T20:13:13.065Z,15.67
2018-02-17T20:15:40.617Z,17.90
2018-02-17T20:18:08.137Z,17.27
2018-02-17T20:20:35.684Z,13.63
2018-02-17T20:23:03.230Z,10.50
2018-02-17T20:25:30.791Z,11.10
2018-02-17T20:27:58.326Z,28.27
2018-02-17T20:30:25.894Z,20.27
2018-02-17T20:32:53.426Z,17.93
2018-02-17T20:35:21.997Z,20.00
2018-02-17T20:37:49.533Z,11.37
2018-02-17T20:40:17.351Z,12.60
2018-02-17T20:42:44.919Z,11.90
2018-02-17T20:45:12.489Z,12.60
2018-02-17T20:47:40.013Z,14.97
2018-02-17T20:50:07.534Z,14.57
2018-02-17T20:52:35.107Z,13.00
2018-02-17T20:55:02.714Z,13.10
2018-02-17T20:57:31.040Z,12.00
2018-02-17T20:59:58.585Z,11.40
2018-02-17T21:02:26.130Z,12.30
2018-02-17T21:04:53.661Z,15.90
2018-02-17T21:07:21.224Z,11.63
2018-02-17T21:09:48.844Z,12.70
2018-02-17T21:12:16.513Z,12.00
2018-02-17T21:14:44.037Z,13.35
2018-02-17T21:17:11.642Z,25.63
2018-02-17T21:19:40.112Z,12.25
2018-02-17T21:22:09.407Z,11.50
2018-02-17T21:24:36.965Z,10.30
2018-02-17T21:27:04.613Z,11.67
2018-02-17T21:29:32.186Z,10.50
2018-02-17T21:31:59.717Z,12.50
2018-02-17T21:34:27.330Z,12.10
2018-02-17T21:36:55.588Z,11.60
2018-02-17T21:39:23.153Z,10.33
2018-02-17T21:41:50.707Z,10.75
2018-02-17T21:44:18.236Z,8.20
2018-02-17T21:46:45.789Z,10.20
2018-02-17T21:49:13.348Z,9.67
2018-02-17T21:51:40.910Z,11.67
2018-02-17T21:54:08.441Z,9.73
2018-02-17T21:56:36.099Z,12.70
2018-02-17T21:59:03.684Z,11.30
2018-02-17T22:01:31.997Z,10.87
2018-02-17T22:03:59.735Z,9.03
2018-02-17T22:06:27.313Z,8.17
2018-02-17T22:08:54.903Z,9.32
2018-02-17T22:11:22.456Z,9.23
2018-02-17T22:13:50.018Z,8.98
2018-02-17T22:16:17.573Z,10.33
2018-02-17T22:18:45.123Z,9.80
2018-02-17T22:21:12.673Z,11.03
2018-02-17T22:23:41.140Z,12.45
2018-02-17T22:26:08.726Z,11.53
2018-02-17T22:28:36.509Z,14.30
2018-02-17T22:31:04.099Z,22.03
2018-02-17T22:33:31.763Z,18.97
2018-02-17T22:36:00.221Z,12.40
2018-02-17T22:38:27.783Z,11.80
2018-02-17T22:40:55.324Z,16.95
2018-02-17T22:43:22.941Z,15.33
2018-02-17T22:45:50.493Z,14.80
2018-02-17T22:48:18.815Z,13.83
2018-02-17T22:50:46.361Z,11.33
2018-02-17T22:53:13.906Z,12.73
2018-02-17T22:55:41.567Z,10.77
2018-02-17T22:58:09.193Z,12.90
2018-02-17T23:00:40.601Z,12.23
2018-02-17T23:03:08.148Z,11.83
2018-02-17T23:05:35.692Z,13.87
2018-02-17T23:08:03.258Z,11.40
2018-02-17T23:10:30.793Z,11.73
2018-02-17T23:12:58.328Z,11.77
2018-02-17T23:15:25.868Z,11.47
2018-02-17T23:17:53.396Z,13.73
2018-02-17T23:20:21.010Z,11.23
2018-02-17T23:22:49.326Z,11.40
2018-02-17T23:25:16.876Z,11.27
2018-02-17T23:27:44.428Z,12.63
2018-02-17T23:30:12.801Z,12.23
2018-02-17T23:32:40.321Z,16.83
2018-02-17T23:35:07.882Z,10.60
2018-02-17T23:37:35.415Z,10.30
2018-02-17T23:40:02.964Z,12.10
2018-02-17T23:42:30.539Z,11.50
2018-02-17T23:44:58.109Z,11.47
2018-02-17T23:47:25.645Z,11.67
2018-02-17T23:49:53.533Z,12.63
2018-02-17T23:52:21.288Z,13.50
2018-02-17T23:54:49.671Z,12.90
2018-02-17T23:57:17.440Z,13.05
2018-02-17T23:59:45.074Z,11.63
